createdAt,value
2022-09-17T00:00:52.476Z,97512.66
2022-09-17T00:03:19.226Z,97516.31
2022-09-17T00:05:45.765Z,97510.19
2022-09-17T00:08:14.981Z,97512.84
2022-09-17T00:10:44.749Z,97507.53
2022-09-17T00:13:12.231Z,97511.97
2022-09-17T00:15:43.726Z,97519.13
2022-09-17T00:18:11.200Z,97519.41
2022-09-17T00:20:47.411Z,97496.47
2022-09-17T00:23:14.923Z,97517.44
2022-09-17T00:25:44.148Z,97495.47
2022-09-17T00:28:12.049Z,97499.13
2022-09-17T00:30:43.838Z,97514.09
2022-09-17T00:33:16.903Z,97514.09
2022-09-17T00:35:44.422Z,97520.41
2022-09-17T00:38:11.496Z,97518.59
2022-09-17T00:40:38.824Z,97523.22
2022-09-17T00:43:11.755Z,97521.38
2022-09-17T00:45:40.048Z,97504.72
2022-09-17T00:48:07.022Z,97514.44
2022-09-17T00:50:41.836Z,97523.38
2022-09-17T00:53:13.840Z,97507.63
2022-09-17T00:55:45.867Z,97503.94
2022-09-17T00:58:14.999Z,97510.28
2022-09-17T01:00:41.622Z,97513.91
2022-09-17T01:03:08.834Z,97511.25
2022-09-17T01:06:01.452Z,97501.63
2022-09-17T01:09:06.400Z,97507.09
2022-09-17T01:11:48.099Z,97505.25
2022-09-17T01:14:35.629Z,97506.41
2022-09-17T01:17:27.579Z,97501.91
2022-09-17T01:20:19.121Z,97501.25
2022-09-17T01:23:23.308Z,97503.91
2022-09-17T01:25:52.588Z,97507.53
2022-09-17T01:28:18.999Z,97501.38
2022-09-17T01:31:11.677Z,97510.19
2022-09-17T01:33:46.577Z,97505.88
2022-09-17T01:36:52.565Z,97502.41
2022-09-17T01:39:32.395Z,97500.72
2022-09-17T01:42:10.804Z,97510.34
2022-09-17T01:44:55.709Z,97508.84
2022-09-17T01:47:35.639Z,97514.97
2022-09-17T01:50:10.561Z,97523.91
2022-09-17T01:52:40.456Z,97497.91
2022-09-17T01:55:13.115Z,97516.94
2022-09-17T01:57:47.477Z,97516.94
2022-09-17T02:00:17.185Z,97514.28
2022-09-17T02:03:06.402Z,97509.94
2022-09-17T02:06:03.132Z,97509.13
2022-09-17T02:08:42.309Z,97513.63
2022-09-17T02:11:12.345Z,97508.44
2022-09-17T02:13:56.051Z,97508.44
2022-09-17T02:16:26.873Z,97504.13
2022-09-17T02:19:09.158Z,97514.72
2022-09-17T02:21:41.457Z,97526.38
2022-09-17T02:24:18.140Z,97525.50
2022-09-17T02:27:06.811Z,97521.19
2022-09-17T02:29:36.845Z,97523.84
2022-09-17T02:32:04.466Z,97528.31
2022-09-17T02:34:31.499Z,97524.97
2022-09-17T02:36:59.512Z,97530.16
2022-09-17T02:39:26.858Z,97532.81
2022-09-17T02:42:08.353Z,97531.25
2022-09-17T02:44:40.616Z,97526.81
2022-09-17T02:47:22.437Z,97525.13
2022-09-17T02:50:18.024Z,97523.63
2022-09-17T02:52:50.731Z,97518.31
2022-09-17T02:55:28.180Z,97507.00
2022-09-17T02:58:10.257Z,97510.34
2022-09-17T03:00:39.468Z,97502.56
2022-09-17T03:03:21.976Z,97500.72
2022-09-17T03:05:49.869Z,97487.25
2022-09-17T03:08:20.127Z,97496.41
2022-09-17T03:10:49.164Z,97499.91
2022-09-17T03:13:16.309Z,97475.41
2022-09-17T03:15:43.212Z,97490.44
2022-09-17T03:18:09.900Z,97485.94
2022-09-17T03:20:36.761Z,97489.59
2022-09-17T03:23:03.273Z,97485.13
2022-09-17T03:25:29.879Z,97477.31
2022-09-17T03:27:56.688Z,97454.66
2022-09-17T03:30:23.276Z,97477.31
2022-09-17T03:32:49.812Z,97461.47
2022-09-17T03:35:16.380Z,97478.28
2022-09-17T03:37:43.119Z,97478.44
2022-09-17T03:40:10.415Z,97481.94
2022-09-17T03:42:37.020Z,97482.78
2022-09-17T03:45:03.905Z,97481.09
2022-09-17T03:47:31.003Z,97473.31
2022-09-17T03:49:57.745Z,97464.00
2022-09-17T03:52:24.309Z,97463.66
2022-09-17T03:54:50.989Z,97456.56
2022-09-17T03:57:17.463Z,97461.00
2022-09-17T03:59:44.001Z,97456.69
2022-09-17T04:02:10.630Z,97455.88
2022-09-17T04:04:37.748Z,97431.19
2022-09-17T04:07:04.796Z,97459.50
2022-09-17T04:09:33.287Z,97462.16
2022-09-17T04:12:02.071Z,97460.50
2022-09-17T04:14:28.611Z,97458.69
2022-09-17T04:16:55.225Z,97453.50
2022-09-17T04:19:21.733Z,97455.19
2022-09-17T04:21:48.608Z,97449.06
2022-09-17T04:24:15.367Z,97449.06
2022-09-17T04:26:41.952Z,97448.19
2022-09-17T04:29:10.035Z,97461.63
2022-09-17T04:31:36.904Z,97459.81
2022-09-17T04:34:03.640Z,97448.53
2022-09-17T04:36:30.195Z,97454.66
2022-09-17T04:38:56.803Z,97458.28
2022-09-17T04:41:23.381Z,97461.94
2022-09-17T04:43:50.244Z,97469.06
2022-09-17T04:46:16.942Z,97469.06
2022-09-17T04:48:43.630Z,97476.19
2022-09-17T04:51:10.270Z,97466.56
2022-09-17T04:53:38.485Z,97474.50
2022-09-17T04:56:05.454Z,97467.53
2022-09-17T04:58:32.938Z,97471.03
2022-09-17T05:00:59.871Z,97451.31
2022-09-17T05:03:26.601Z,97452.81
2022-09-17T05:05:53.200Z,97464.06
2022-09-17T05:08:19.796Z,97456.13
2022-09-17T05:10:46.392Z,97464.06
2022-09-17T05:13:12.931Z,97465.06
2022-09-17T05:15:39.479Z,97460.56
2022-09-17T05:18:06.085Z,97464.06
2022-09-17T05:20:32.674Z,97466.72
2022-09-17T05:22:59.289Z,97447.66
2022-09-17T05:25:26.115Z,97470.34
2022-09-17T05:27:53.944Z,97465.88
2022-09-17T05:30:21.096Z,97449.34
2022-09-17T05:32:47.929Z,97436.22
2022-09-17T05:35:14.539Z,97451.78
2022-09-17T05:37:41.277Z,97419.78
2022-09-17T05:40:09.349Z,97453.59
2022-09-17T05:42:36.323Z,97441.19
2022-09-17T05:45:03.899Z,97438.53
2022-09-17T05:47:30.460Z,97440.19
2022-09-17T05:49:57.020Z,97452.78
2022-09-17T05:52:28.099Z,97467.69
2022-09-17T05:54:55.591Z,97466.84
2022-09-17T05:57:22.325Z,97466.59
2022-09-17T05:59:49.356Z,97471.19
2022-09-17T06:02:15.956Z,97472.84
2022-09-17T06:04:42.579Z,97461.41
2022-09-17T06:07:09.314Z,97460.44
2022-09-17T06:09:37.594Z,97466.56
2022-09-17T06:12:05.113Z,97466.56
2022-09-17T06:14:31.755Z,97469.06
2022-09-17T06:16:58.280Z,97462.94
2022-09-17T06:19:24.860Z,97466.41
2022-09-17T06:21:52.620Z,97464.44
2022-09-17T06:24:19.181Z,97459.28
2022-09-17T06:26:45.753Z,97459.28
2022-09-17T06:29:15.117Z,97452.97
2022-09-17T06:31:44.645Z,97449.50
2022-09-17T06:34:11.847Z,97457.31
2022-09-17T06:36:38.443Z,97448.81
2022-09-17T06:39:05.060Z,97467.91
2022-09-17T06:41:31.652Z,97463.47
2022-09-17T06:43:58.689Z,97456.31
2022-09-17T06:46:25.752Z,97465.13
2022-09-17T06:48:52.425Z,97459.81
2022-09-17T06:51:19.094Z,97463.31
2022-09-17T06:53:45.665Z,97466.78
2022-09-17T06:56:12.233Z,97468.44
2022-09-17T06:58:39.647Z,97450.28
2022-09-17T07:01:06.500Z,97464.81
2022-09-17T07:03:33.795Z,97466.66
2022-09-17T07:06:00.526Z,97455.88
2022-09-17T07:08:27.376Z,97461.00
2022-09-17T07:10:58.424Z,97471.63
2022-09-17T07:13:25.546Z,97468.97
2022-09-17T07:15:57.898Z,97461.88
2022-09-17T07:18:25.285Z,97466.16
2022-09-17T07:21:02.880Z,97459.88
2022-09-17T07:23:35.351Z,97463.38
2022-09-17T07:26:05.108Z,97466.03
2022-09-17T07:28:32.877Z,97468.53
2022-09-17T07:31:03.803Z,97472.00
2022-09-17T07:33:30.548Z,97478.16
2022-09-17T07:35:59.583Z,97478.81
2022-09-17T07:38:27.392Z,97486.78
2022-09-17T07:41:09.839Z,97478.81
2022-09-17T07:43:36.810Z,97496.41
2022-09-17T07:46:05.352Z,97511.50
2022-09-17T07:48:32.736Z,97505.34
2022-09-17T07:50:59.337Z,97494.97
2022-09-17T07:53:27.043Z,97511.50
2022-09-17T07:55:55.451Z,97520.59
2022-09-17T07:58:33.829Z,97519.63
2022-09-17T08:01:05.297Z,97504.81
2022-09-17T08:03:31.945Z,97496.84
2022-09-17T08:06:10.135Z,97495.06
2022-09-17T08:08:39.427Z,97494.19
2022-09-17T08:11:11.512Z,97504.00
2022-09-17T08:13:38.509Z,97508.31
2022-09-17T08:16:07.535Z,97501.34
2022-09-17T08:18:35.675Z,97484.19
2022-09-17T08:21:04.728Z,97494.19
2022-09-17T08:23:34.048Z,97488.06
2022-09-17T08:26:00.945Z,97493.38
2022-09-17T08:28:30.052Z,97494.19
2022-09-17T08:31:19.213Z,97496.03
2022-09-17T08:33:47.303Z,97491.53
2022-09-17T08:36:15.889Z,97491.41
2022-09-17T08:38:42.544Z,97506.34
2022-09-17T08:41:28.824Z,97502.69
2022-09-17T08:44:07.485Z,97498.22
2022-09-17T08:46:42.692Z,97505.06
2022-09-17T08:49:34.174Z,97498.44
2022-09-17T08:52:37.684Z,97516.56
2022-09-17T08:55:33.903Z,97501.19
2022-09-17T08:58:05.093Z,97503.66
2022-09-17T09:00:57.515Z,97490.94
2022-09-17T09:03:39.347Z,97493.41
2022-09-17T09:06:10.480Z,97488.81
2022-09-17T09:08:51.323Z,97481.69
2022-09-17T09:11:26.404Z,97481.53
2022-09-17T09:14:05.456Z,97478.72
2022-09-17T09:16:37.817Z,97483.84
2022-09-17T09:19:28.270Z,97479.41
2022-09-17T09:22:13.685Z,97475.75
2022-09-17T09:25:12.684Z,97469.59
2022-09-17T09:27:56.477Z,97477.41
2022-09-17T09:30:24.938Z,97480.06
2022-09-17T09:36:15.783Z,97498.34
2022-09-17T09:38:57.764Z,97500.00
2022-09-17T09:41:31.832Z,97506.16
2022-09-17T09:44:04.794Z,97507.00
2022-09-17T09:46:55.479Z,97503.31
2022-09-17T09:49:48.331Z,97505.84
2022-09-17T09:52:23.958Z,97510.19
2022-09-17T09:55:26.387Z,97501.38
2022-09-17T10:00:55.182Z,97500.53
2022-09-17T10:03:26.361Z,97504.00
2022-09-17T10:06:02.041Z,97478.25
2022-09-17T10:08:33.132Z,97499.41
2022-09-17T10:11:18.000Z,97500.94
2022-09-17T10:13:44.603Z,97507.91
2022-09-17T10:16:26.191Z,97508.75
2022-09-17T10:19:07.907Z,97508.56
2022-09-17T10:21:36.702Z,97512.09
2022-09-17T10:24:05.253Z,97503.97
2022-09-17T10:26:36.956Z,97501.31
2022-09-17T10:29:06.676Z,97507.44
2022-09-17T10:31:54.633Z,97508.28
2022-09-17T10:34:41.177Z,97516.94
2022-09-17T10:37:32.703Z,97511.63
2022-09-17T10:39:59.329Z,97513.44
2022-09-17T10:42:25.843Z,97514.28
2022-09-17T10:44:57.274Z,97447.06
2022-09-17T10:47:36.091Z,97517.75
2022-09-17T10:50:08.329Z,97509.44
2022-09-17T10:52:38.109Z,97518.56
2022-09-17T10:55:29.553Z,97513.13
2022-09-17T10:58:07.142Z,97508.66
2022-09-17T11:01:11.007Z,97509.50
2022-09-17T11:03:56.501Z,97517.47
2022-09-17T11:06:54.580Z,97517.47
2022-09-17T11:09:33.334Z,97519.94
2022-09-17T11:12:30.659Z,97520.13
2022-09-17T11:15:18.269Z,97531.56
2022-09-17T11:18:05.840Z,97528.09
2022-09-17T11:20:54.213Z,97531.56
2022-09-17T11:23:54.828Z,97530.75
2022-09-17T11:26:46.079Z,97536.06
2022-09-17T11:29:50.971Z,97536.88
2022-09-17T11:32:35.980Z,97531.72
2022-09-17T11:35:17.444Z,97525.44
2022-09-17T11:38:06.484Z,97499.97
2022-09-17T11:40:43.484Z,97532.38
2022-09-17T11:43:25.837Z,97535.88
2022-09-17T11:46:25.296Z,97533.22
2022-09-17T11:48:55.389Z,97527.41
2022-09-17T11:51:32.761Z,97536.69
2022-09-17T11:54:20.878Z,97521.75
2022-09-17T11:57:27.950Z,97512.81
2022-09-17T11:59:57.091Z,97518.97
2022-09-17T12:02:33.121Z,97513.78
2022-09-17T12:05:08.623Z,97512.97
2022-09-17T12:07:54.744Z,97514.66
2022-09-17T12:10:42.265Z,97502.19
2022-09-17T12:13:30.743Z,97511.81
2022-09-17T12:16:25.365Z,97508.19
2022-09-17T12:19:05.534Z,97505.69
2022-09-17T12:21:40.929Z,97499.53
2022-09-17T12:24:25.339Z,97502.03
2022-09-17T12:27:08.255Z,97506.50
2022-09-17T12:30:07.009Z,97495.06
2022-09-17T12:32:43.313Z,97495.88
2022-09-17T12:36:03.660Z,97489.59
2022-09-17T12:39:03.515Z,97490.28
2022-09-17T12:41:39.165Z,97484.97
2022-09-17T12:44:11.945Z,97474.34
2022-09-17T12:46:53.866Z,97465.38
2022-09-17T12:49:43.851Z,97473.19
2022-09-17T12:52:25.715Z,97471.34
2022-09-17T12:55:04.098Z,97472.19
2022-09-17T12:58:00.893Z,97463.09
2022-09-17T13:00:41.445Z,97455.25
2022-09-17T13:03:16.317Z,97466.75
2022-09-17T13:06:22.245Z,97456.41
2022-09-17T13:09:16.591Z,97447.63
2022-09-17T13:11:55.022Z,97441.63
2022-09-17T13:14:25.396Z,97453.22
2022-09-17T13:17:19.483Z,97447.09
2022-09-17T13:19:52.880Z,97444.44
2022-09-17T13:22:23.480Z,97443.59
2022-09-17T13:25:09.584Z,97437.47
2022-09-17T13:27:38.206Z,97439.13
2022-09-17T13:30:10.956Z,97441.78
2022-09-17T13:32:39.691Z,97439.97
2022-09-17T13:35:15.093Z,97449.59
2022-09-17T13:37:53.788Z,97455.75
2022-09-17T13:40:29.433Z,97448.78
2022-09-17T13:43:08.397Z,97456.75
2022-09-17T13:46:01.065Z,97461.19
2022-09-17T13:48:34.509Z,97463.03
2022-09-17T13:51:39.129Z,97450.59
2022-09-17T13:54:08.549Z,97437.81
2022-09-17T13:56:46.027Z,97441.63
2022-09-17T13:59:20.703Z,97443.31
2022-09-17T14:01:56.351Z,97435.16
2022-09-17T14:04:41.083Z,97439.31
2022-09-17T14:07:26.698Z,97439.31
2022-09-17T14:10:25.777Z,97430.38
2022-09-17T14:12:56.080Z,97409.81
2022-09-17T14:15:36.546Z,97391.06
2022-09-17T14:18:28.825Z,97395.38
2022-09-17T14:21:05.569Z,97385.56
2022-09-17T14:23:34.175Z,97395.22
2022-09-17T14:28:28.740Z,97385.22
2022-09-17T14:30:55.455Z,97402.50
2022-09-17T14:33:31.901Z,97405.31
2022-09-17T14:36:10.670Z,97394.88
2022-09-17T14:38:38.467Z,97394.19
2022-09-17T14:41:24.321Z,97387.19
2022-09-17T14:44:08.337Z,97404.97
2022-09-17T14:47:10.462Z,97413.28
2022-09-17T14:49:39.907Z,97417.03
2022-09-17T14:52:28.086Z,97380.22
2022-09-17T14:55:15.433Z,97423.38
2022-09-17T14:57:44.132Z,97422.69
2022-09-17T15:00:31.409Z,97415.53
2022-09-17T15:03:00.655Z,97414.72
2022-09-17T15:05:33.684Z,97419.22
2022-09-17T15:08:11.270Z,97390.72
2022-09-17T15:10:47.004Z,97409.56
2022-09-17T15:13:53.078Z,97399.94
2022-09-17T15:16:25.404Z,97387.66
2022-09-17T15:18:53.137Z,97384.19
2022-09-17T15:21:40.044Z,97385.16
2022-09-17T15:24:27.667Z,97377.19
2022-09-17T15:26:58.948Z,97381.81
2022-09-17T15:29:30.027Z,97384.47
2022-09-17T15:31:57.087Z,97379.97
2022-09-17T15:34:23.785Z,97379.16
2022-09-17T15:37:21.028Z,97386.31
2022-09-17T15:39:54.592Z,97383.66
2022-09-17T15:42:27.991Z,97390.78
2022-09-17T15:45:22.133Z,97397.91
2022-09-17T15:47:51.114Z,97385.63
2022-09-17T15:50:29.676Z,97390.94
2022-09-17T15:53:13.387Z,97395.44
2022-09-17T15:56:05.131Z,97396.41
2022-09-17T15:58:35.639Z,97396.41
2022-09-17T16:01:14.659Z,97407.84
2022-09-17T16:03:41.744Z,97401.84
2022-09-17T16:06:20.845Z,97411.50
2022-09-17T16:08:51.534Z,97415.13
2022-09-17T16:11:22.907Z,97421.56
2022-09-17T16:13:53.847Z,97416.13
2022-09-17T16:16:22.957Z,97412.59
2022-09-17T16:18:50.356Z,97423.22
2022-09-17T16:21:18.552Z,97417.41
2022-09-17T16:23:46.088Z,97416.41
2022-09-17T16:26:17.181Z,97428.00
2022-09-17T16:28:48.474Z,97421.88
2022-09-17T16:31:15.433Z,97414.91
2022-09-17T16:33:41.980Z,97420.22
2022-09-17T16:36:08.615Z,97415.06
2022-09-17T16:38:36.040Z,97422.19
2022-09-17T16:41:05.148Z,97411.03
2022-09-17T16:43:34.610Z,97418.72
2022-09-17T16:46:03.137Z,97416.22
2022-09-17T16:48:29.804Z,97410.91
2022-09-17T16:50:56.401Z,97406.59
2022-09-17T16:53:22.896Z,97404.75
2022-09-17T16:55:49.460Z,97395.13
2022-09-17T16:58:16.188Z,97405.72
2022-09-17T17:00:43.318Z,97402.44
2022-09-17T17:03:13.263Z,97406.06
2022-09-17T17:05:40.276Z,97404.41
2022-09-17T17:08:08.764Z,97400.91
2022-09-17T17:10:37.859Z,97402.72
2022-09-17T17:13:05.148Z,97393.94
2022-09-17T17:15:34.636Z,97383.44
2022-09-17T17:18:01.130Z,97392.28
2022-09-17T17:20:27.873Z,97394.94
2022-09-17T17:22:55.261Z,97388.94
2022-09-17T17:25:23.647Z,97383.63
2022-09-17T17:27:50.567Z,97390.78
2022-09-17T17:30:19.279Z,97386.59
2022-09-17T17:32:50.471Z,97385.63
2022-09-17T17:35:17.384Z,97377.78
2022-09-17T17:37:43.869Z,97381.31
2022-09-17T17:40:10.786Z,97370.84
2022-09-17T17:42:39.433Z,97347.69
2022-09-17T17:45:07.778Z,97367.16
2022-09-17T17:47:34.883Z,97379.78
2022-09-17T17:50:01.617Z,97371.97
2022-09-17T17:52:28.251Z,97378.28
2022-09-17T17:54:55.177Z,97378.28
2022-09-17T17:57:21.791Z,97380.25
2022-09-17T17:59:48.345Z,97376.63
2022-09-17T18:02:14.990Z,97387.53
2022-09-17T18:04:41.681Z,97312.09
2022-09-17T18:07:08.187Z,97386.72
2022-09-17T18:09:35.511Z,97381.56
2022-09-17T18:12:02.215Z,97388.50
2022-09-17T18:14:28.825Z,97384.22
2022-09-17T18:16:55.453Z,97368.25
2022-09-17T18:19:22.010Z,97375.41
2022-09-17T18:21:48.564Z,97367.63
2022-09-17T18:24:15.163Z,97374.72
2022-09-17T18:26:41.653Z,97385.34
2022-09-17T18:29:08.510Z,97380.19
2022-09-17T18:31:36.170Z,97384.69
2022-09-17T18:34:07.196Z,97387.50
2022-09-17T18:36:35.579Z,97378.69
2022-09-17T18:41:53.245Z,97391.13
2022-09-17T18:44:21.640Z,97392.94
2022-09-17T18:46:50.075Z,97386.28
2022-09-17T18:49:17.129Z,97397.25
2022-09-17T18:51:43.907Z,97397.09
2022-09-17T18:54:12.540Z,97402.09
2022-09-17T18:56:41.425Z,97404.44
2022-09-17T18:59:08.509Z,97410.44
2022-09-17T19:01:35.726Z,97401.66
2022-09-17T19:04:03.196Z,97400.50
2022-09-17T19:06:31.875Z,97392.38
2022-09-17T19:09:01.940Z,97394.03
2022-09-17T19:11:29.060Z,97400.03
2022-09-17T19:13:55.785Z,97402.53
2022-09-17T19:16:22.719Z,97375.81
2022-09-17T19:18:50.778Z,97400.59
2022-09-17T19:21:20.611Z,97388.47
2022-09-17T19:23:49.492Z,97391.28
2022-09-17T19:26:22.367Z,97388.13
2022-09-17T19:28:55.262Z,97392.75
2022-09-17T19:31:22.467Z,97385.75
2022-09-17T19:33:51.518Z,97383.97
2022-09-17T19:36:19.292Z,97380.41
2022-09-17T19:38:46.617Z,97381.56
2022-09-17T19:41:23.044Z,97382.03
2022-09-17T19:43:54.065Z,97380.53
2022-09-17T19:46:24.047Z,97384.97
2022-09-17T19:48:56.174Z,97373.84
2022-09-17T19:51:23.696Z,97377.81
2022-09-17T19:53:50.899Z,97382.59
2022-09-17T19:56:21.580Z,97377.72
2022-09-17T19:58:48.448Z,97378.88
2022-09-17T20:01:15.439Z,97373.75
2022-09-17T20:03:44.093Z,97375.03
2022-09-17T20:06:22.987Z,97389.41
2022-09-17T20:09:04.295Z,97376.31
2022-09-17T20:11:42.627Z,97387.06
2022-09-17T20:17:03.901Z,97379.72
2022-09-17T20:19:30.674Z,97380.53
2022-09-17T20:21:57.154Z,97385.53
2022-09-17T20:24:23.856Z,97382.03
2022-09-17T20:26:50.374Z,97377.75
2022-09-17T20:29:17.399Z,97375.72
2022-09-17T20:31:43.943Z,97377.84
2022-09-17T20:34:12.472Z,97370.00
2022-09-17T20:36:39.001Z,97360.50
2022-09-17T20:39:13.483Z,97365.81
2022-09-17T20:41:43.496Z,97370.56
2022-09-17T20:44:10.075Z,97357.25
2022-09-17T20:46:36.806Z,97362.38
2022-09-17T20:51:30.773Z,97367.31
2022-09-17T20:53:57.866Z,97365.09
2022-09-17T20:56:31.697Z,97361.63
2022-09-17T20:59:08.452Z,97354.13
2022-09-17T21:03:10.248Z,97353.66
2022-09-17T21:06:01.541Z,97347.75
2022-09-17T21:10:45.001Z,97350.44
2022-09-17T21:13:11.638Z,97345.28
2022-09-17T21:15:38.187Z,97336.50
2022-09-17T21:18:06.127Z,97343.75
2022-09-17T21:20:37.661Z,97342.25
2022-09-17T21:23:04.502Z,97331.28
2022-09-17T21:25:31.112Z,97339.91
2022-09-17T21:27:58.663Z,97357.59
2022-09-17T21:30:25.593Z,97342.16
2022-09-17T21:32:53.678Z,97347.59
2022-09-17T21:35:20.222Z,97334.97
2022-09-17T21:37:46.859Z,97338.91
2022-09-17T21:40:13.442Z,97336.09
2022-09-17T21:42:40.073Z,97334.97
2022-09-17T21:45:06.936Z,97346.09
2022-09-17T21:47:33.568Z,97345.66
2022-09-17T21:50:00.064Z,97340.03
2022-09-17T21:52:28.903Z,97343.22
2022-09-17T21:54:55.537Z,97342.09
2022-09-17T21:57:22.132Z,97320.84
2022-09-17T21:59:48.605Z,97337.22
2022-09-17T22:02:15.441Z,97344.84
2022-09-17T22:04:41.932Z,97339.38
2022-09-17T22:07:08.469Z,97347.22
2022-09-17T22:09:35.280Z,97354.00
2022-09-17T22:12:02.728Z,97350.38
2022-09-17T22:14:29.225Z,97340.63
2022-09-17T22:16:58.674Z,97349.38
2022-09-17T22:19:26.126Z,97351.06
2022-09-17T22:21:55.217Z,97351.75
2022-09-17T22:24:23.009Z,97339.34
2022-09-17T22:26:56.575Z,97342.00
2022-09-17T22:29:25.469Z,97343.50
2022-09-17T22:31:52.016Z,97345.19
2022-09-17T22:34:20.946Z,97348.69
2022-09-17T22:36:48.204Z,97337.97
2022-09-17T22:39:15.328Z,97349.34
2022-09-17T22:41:45.751Z,97355.50
2022-09-17T22:44:16.718Z,97344.91
2022-09-17T22:46:46.082Z,97346.56
2022-09-17T22:49:12.844Z,97342.69
2022-09-17T22:51:40.099Z,97350.84
2022-09-17T22:54:07.325Z,97357.81
2022-09-17T22:56:35.363Z,97361.34
2022-09-17T22:59:02.033Z,97355.06
2022-09-17T23:01:33.702Z,97352.41
2022-09-17T23:04:01.210Z,97352.69
2022-09-17T23:06:30.472Z,97352.41
2022-09-17T23:08:57.658Z,97347.94
2022-09-17T23:11:30.570Z,97349.75
2022-09-17T23:14:01.972Z,97353.22
2022-09-17T23:16:34.276Z,97344.28
2022-09-17T23:19:02.274Z,97352.25
2022-09-17T23:21:28.994Z,97343.22
2022-09-17T23:23:55.605Z,97345.13
2022-09-17T23:26:24.688Z,97340.78
2022-09-17T23:28:51.731Z,97351.28
2022-09-17T23:31:27.354Z,97345.97
2022-09-17T23:33:56.086Z,97345.97
2022-09-17T23:36:25.381Z,97346.94
2022-09-17T23:38:53.268Z,97338.84
2022-09-17T23:41:31.851Z,97343.31
2022-09-17T23:44:01.579Z,97337.00
2022-09-17T23:46:31.184Z,97339.66
2022-09-17T23:48:58.292Z,97320.53
2022-09-17T23:51:26.955Z,97341.50
2022-09-17T23:53:54.510Z,97340.50
2022-09-17T23:56:25.135Z,97341.34
2022-09-17T23:58:52.855Z,97326.88
